createdAt,value
2023-02-05T00:01:32.913Z,7.90
2023-02-05T00:04:20.749Z,8.50
2023-02-05T00:07:09.011Z,8.10
2023-02-05T00:09:56.750Z,7.90
2023-02-05T00:12:51.936Z,7.90
2023-02-05T00:15:41.325Z,7.90
2023-02-05T00:18:30.564Z,8.00
2023-02-05T00:21:19.288Z,7.90
2023-02-05T00:24:07.107Z,8.10
2023-02-05T00:26:55.611Z,7.90
2023-02-05T00:29:45.077Z,5.70
2023-02-05T00:32:32.602Z,6.10
2023-02-05T00:35:20.278Z,7.90
2023-02-05T00:38:07.900Z,8.70
2023-02-05T00:40:55.608Z,7.90
2023-02-05T00:43:43.391Z,8.00
2023-02-05T00:46:32.703Z,8.30
2023-02-05T00:49:21.121Z,7.90
2023-02-05T00:52:09.356Z,8.40
2023-02-05T00:54:56.700Z,7.90
2023-02-05T00:57:44.114Z,7.90
2023-02-05T01:00:32.974Z,8.40
2023-02-05T01:03:22.868Z,7.80
2023-02-05T01:06:12.835Z,9.40
2023-02-05T01:09:02.343Z,7.70
2023-02-05T01:11:50.713Z,7.80
2023-02-05T01:14:38.669Z,7.70
2023-02-05T01:17:26.902Z,7.70
2023-02-05T01:20:16.949Z,7.70
2023-02-05T01:23:04.963Z,9.30
2023-02-05T01:25:52.492Z,7.70
2023-02-05T01:28:40.180Z,9.70
2023-02-05T01:31:29.952Z,7.70
2023-02-05T01:34:17.818Z,7.60
2023-02-05T01:37:06.835Z,7.70
2023-02-05T01:39:54.469Z,7.70
2023-02-05T01:42:42.568Z,8.10
2023-02-05T01:45:52.123Z,7.60
2023-02-05T01:48:40.412Z,7.60
2023-02-05T01:51:29.608Z,7.60
2023-02-05T01:54:20.328Z,7.60
2023-02-05T01:57:10.880Z,7.60
2023-02-05T01:59:58.718Z,7.70
2023-02-05T02:02:46.502Z,7.50
2023-02-05T02:05:35.264Z,7.60
2023-02-05T02:08:23.608Z,7.60
2023-02-05T02:11:17.263Z,7.60
2023-02-05T02:14:07.145Z,7.60
2023-02-05T02:16:55.049Z,7.50
2023-02-05T02:19:49.285Z,7.70
2023-02-05T02:22:44.527Z,6.80
2023-02-05T02:25:39.267Z,9.60
2023-02-05T02:28:30.939Z,7.60
2023-02-05T02:31:21.800Z,9.10
2023-02-05T02:34:13.336Z,7.70
2023-02-05T02:37:04.241Z,9.80
2023-02-05T02:39:58.468Z,7.00
2023-02-05T02:42:57.097Z,7.60
2023-02-05T02:45:48.094Z,7.50
2023-02-05T02:48:39.725Z,7.80
2023-02-05T02:51:33.005Z,6.50
2023-02-05T02:54:22.517Z,7.60
2023-02-05T02:57:11.697Z,7.50
2023-02-05T03:00:01.046Z,7.50
2023-02-05T03:02:51.880Z,7.60
2023-02-05T03:05:41.430Z,7.60
2023-02-05T03:08:36.511Z,7.60
2023-02-05T03:11:34.030Z,7.60
2023-02-05T03:14:22.226Z,7.60
2023-02-05T03:17:10.790Z,7.60
2023-02-05T03:20:07.265Z,9.50
2023-02-05T03:22:56.161Z,7.50
2023-02-05T03:25:43.645Z,7.70
2023-02-05T03:28:32.678Z,5.40
2023-02-05T03:31:25.269Z,7.50
2023-02-05T03:34:21.995Z,7.40
2023-02-05T03:37:23.491Z,7.40
2023-02-05T03:40:16.647Z,7.40
2023-02-05T03:43:08.507Z,7.40
2023-02-05T03:45:58.452Z,7.40
2023-02-05T03:48:56.036Z,7.40
2023-02-05T03:51:48.382Z,7.30
2023-02-05T03:54:45.526Z,7.30
2023-02-05T03:57:40.517Z,7.40
2023-02-05T04:00:31.854Z,7.70
2023-02-05T04:03:25.402Z,7.30
2023-02-05T04:06:16.438Z,7.20
2023-02-05T04:09:06.175Z,7.30
2023-02-05T04:11:56.407Z,7.20
2023-02-05T04:14:45.323Z,7.20
2023-02-05T04:17:36.987Z,7.20
2023-02-05T04:20:25.007Z,7.10
2023-02-05T04:23:14.190Z,7.10
2023-02-05T04:26:03.411Z,7.10
2023-02-05T04:29:01.595Z,7.00
2023-02-05T04:31:55.458Z,7.10
2023-02-05T04:34:47.345Z,7.70
2023-02-05T04:37:45.925Z,7.30
2023-02-05T04:40:34.233Z,8.30
2023-02-05T04:43:25.006Z,7.10
2023-02-05T04:46:14.178Z,7.20
2023-02-05T04:49:04.898Z,7.10
2023-02-05T04:51:52.650Z,7.20
2023-02-05T04:54:45.000Z,7.10
2023-02-05T04:57:33.686Z,7.10
2023-02-05T05:00:28.282Z,7.10
2023-02-05T05:03:22.481Z,7.30
2023-02-05T05:06:10.444Z,7.50
2023-02-05T05:08:58.303Z,7.10
2023-02-05T05:11:46.465Z,7.30
2023-02-05T05:14:36.791Z,7.20
2023-02-05T05:17:24.498Z,7.40
2023-02-05T05:20:16.356Z,7.00
2023-02-05T05:23:05.451Z,7.00
2023-02-05T05:25:53.122Z,6.80
2023-02-05T05:28:40.723Z,6.90
2023-02-05T05:31:28.685Z,6.80
2023-02-05T05:34:16.593Z,6.50
2023-02-05T05:37:07.991Z,6.80
2023-02-05T05:40:19.511Z,7.70
2023-02-05T05:43:24.713Z,6.50
2023-02-05T05:46:16.209Z,6.60
2023-02-05T05:49:04.841Z,8.70
2023-02-05T05:51:54.952Z,6.50
2023-02-05T05:54:44.286Z,6.50
2023-02-05T05:57:32.319Z,6.60
2023-02-05T06:00:22.742Z,6.50
2023-02-05T06:03:14.012Z,6.50
2023-02-05T06:06:01.663Z,6.50
2023-02-05T06:08:49.874Z,6.50
2023-02-05T06:11:38.575Z,6.50
2023-02-05T06:14:25.884Z,6.50
2023-02-05T06:17:17.612Z,6.70
2023-02-05T06:20:05.625Z,6.80
2023-02-05T06:22:55.517Z,6.20
2023-02-05T06:25:44.306Z,6.60
2023-02-05T06:28:33.242Z,6.60
2023-02-05T06:31:21.237Z,8.50
2023-02-05T06:34:09.352Z,6.90
2023-02-05T06:36:57.252Z,6.80
2023-02-05T06:39:45.272Z,6.70
2023-02-05T06:42:33.494Z,6.70
2023-02-05T06:45:22.711Z,8.10
2023-02-05T06:48:12.341Z,6.60
2023-02-05T06:51:00.571Z,6.80
2023-02-05T06:53:49.141Z,6.70
2023-02-05T06:56:36.743Z,6.80
2023-02-05T06:59:24.104Z,6.70
2023-02-05T07:02:14.652Z,6.70
2023-02-05T07:05:04.797Z,6.70
2023-02-05T07:07:52.465Z,6.70
2023-02-05T07:10:40.251Z,6.70
2023-02-05T07:13:28.395Z,6.70
2023-02-05T07:16:16.262Z,6.70
2023-02-05T07:19:05.959Z,6.70
2023-02-05T07:21:53.475Z,6.70
2023-02-05T07:24:44.262Z,6.70
2023-02-05T07:27:31.667Z,6.60
2023-02-05T07:30:20.206Z,6.60
2023-02-05T07:33:08.142Z,6.50
2023-02-05T07:35:56.868Z,6.50
2023-02-05T07:38:45.155Z,6.50
2023-02-05T07:41:32.807Z,6.40
2023-02-05T07:44:20.401Z,6.40
2023-02-05T07:47:08.453Z,6.40
2023-02-05T07:49:56.448Z,6.20
2023-02-05T07:52:46.127Z,6.30
2023-02-05T07:55:33.892Z,6.20
2023-02-05T07:58:21.987Z,6.30
2023-02-05T08:01:10.036Z,6.30
2023-02-05T08:03:57.122Z,6.40
2023-02-05T08:06:44.818Z,6.30
2023-02-05T08:09:34.384Z,6.30
2023-02-05T08:12:21.798Z,6.20
2023-02-05T08:15:09.597Z,6.20
2023-02-05T08:17:56.907Z,5.50
2023-02-05T08:20:45.283Z,6.20
2023-02-05T08:23:32.503Z,6.20
2023-02-05T08:26:21.509Z,6.30
2023-02-05T08:29:09.388Z,6.30
2023-02-05T08:31:56.555Z,6.40
2023-02-05T08:34:44.243Z,6.40
2023-02-05T08:37:32.842Z,6.40
2023-02-05T08:40:20.556Z,6.20
2023-02-05T08:43:09.661Z,6.20
2023-02-05T08:45:57.309Z,6.90
2023-02-05T08:48:44.772Z,6.30
2023-02-05T08:51:33.488Z,6.40
2023-02-05T08:54:21.214Z,6.50
2023-02-05T08:57:08.813Z,6.50
2023-02-05T08:59:58.506Z,6.50
2023-02-05T09:02:45.866Z,6.50
2023-02-05T09:05:36.975Z,6.60
2023-02-05T09:08:24.622Z,6.70
2023-02-05T09:11:13.683Z,6.60
2023-02-05T09:14:01.466Z,6.70
2023-02-05T09:16:50.658Z,7.10
2023-02-05T09:19:39.547Z,6.90
2023-02-05T09:22:27.011Z,7.00
2023-02-05T09:25:15.112Z,5.30
2023-02-05T09:28:02.715Z,7.00
2023-02-05T09:30:51.728Z,6.70
2023-02-05T09:33:41.224Z,6.50
2023-02-05T09:36:29.071Z,6.40
2023-02-05T09:39:39.621Z,6.40
2023-02-05T09:42:29.339Z,6.30
2023-02-05T09:45:27.140Z,6.30
2023-02-05T09:48:25.451Z,6.30
2023-02-05T09:51:14.257Z,6.30
2023-02-05T09:54:04.880Z,6.40
2023-02-05T09:56:54.449Z,6.50
2023-02-05T09:59:44.144Z,6.60
2023-02-05T10:02:36.861Z,6.70
2023-02-05T10:05:26.152Z,6.80
2023-02-05T10:08:18.757Z,6.80
2023-02-05T10:11:10.032Z,6.90
2023-02-05T10:14:01.014Z,6.50
2023-02-05T10:16:58.686Z,9.10
2023-02-05T10:19:59.206Z,6.30
2023-02-05T10:22:52.356Z,6.30
2023-02-05T10:25:50.407Z,6.20
2023-02-05T10:28:58.717Z,5.80
2023-02-05T10:31:53.817Z,6.30
2023-02-05T10:34:47.842Z,6.00
2023-02-05T10:37:39.482Z,6.20
2023-02-05T10:40:29.833Z,6.20
2023-02-05T10:43:25.099Z,6.20
2023-02-05T10:46:13.749Z,6.30
2023-02-05T10:49:05.624Z,6.30
2023-02-05T10:51:53.260Z,6.10
2023-02-05T10:54:41.606Z,6.10
2023-02-05T10:57:32.414Z,6.40
2023-02-05T11:00:22.785Z,6.50
2023-02-05T11:03:17.815Z,6.60
2023-02-05T11:08:53.758Z,6.90
2023-02-05T11:11:41.373Z,6.90
2023-02-05T11:14:32.698Z,6.80
2023-02-05T11:17:24.569Z,6.70
2023-02-05T11:20:26.702Z,7.10
2023-02-05T11:26:02.978Z,7.00
2023-02-05T11:28:50.559Z,7.00
2023-02-05T11:31:38.531Z,7.10
2023-02-05T11:34:28.140Z,7.30
2023-02-05T11:37:17.522Z,7.50
2023-02-05T11:40:05.275Z,7.50
2023-02-05T11:42:59.106Z,7.40
2023-02-05T11:45:49.524Z,7.40
2023-02-05T11:48:39.602Z,7.80
2023-02-05T11:51:40.628Z,7.40
2023-02-05T11:54:31.677Z,7.60
2023-02-05T11:57:31.991Z,7.50
2023-02-05T12:00:21.793Z,7.70
2023-02-05T12:03:17.743Z,8.10
2023-02-05T12:06:15.634Z,8.30
2023-02-05T12:09:04.863Z,8.20
2023-02-05T12:12:11.340Z,8.10
2023-02-05T12:15:04.735Z,8.20
2023-02-05T12:18:04.790Z,8.00
2023-02-05T12:21:06.328Z,8.10
2023-02-05T12:24:05.850Z,8.10
2023-02-05T12:26:58.149Z,8.20
2023-02-05T12:29:52.757Z,8.20
2023-02-05T12:32:45.915Z,8.50
2023-02-05T12:35:39.639Z,10.50
2023-02-05T12:38:33.016Z,8.50
2023-02-05T12:41:27.991Z,8.50
2023-02-05T12:44:22.999Z,8.60
2023-02-05T12:47:16.068Z,8.50
2023-02-05T12:50:11.393Z,8.40
2023-02-05T12:53:05.021Z,8.40
2023-02-05T12:56:04.360Z,8.20
2023-02-05T12:58:54.665Z,6.60
2023-02-05T13:01:44.476Z,8.10
2023-02-05T13:04:35.156Z,8.40
2023-02-05T13:07:29.078Z,8.60
2023-02-05T13:10:19.820Z,8.60
2023-02-05T13:13:12.090Z,8.70
2023-02-05T13:16:02.657Z,8.60
2023-02-05T13:18:54.720Z,8.60
2023-02-05T13:22:00.308Z,8.70
2023-02-05T13:25:07.498Z,8.70
2023-02-05T13:28:16.315Z,8.60
2023-02-05T13:31:04.571Z,8.60
2023-02-05T13:33:54.575Z,8.50
2023-02-05T13:37:02.671Z,8.40
2023-02-05T13:40:04.206Z,8.40
2023-02-05T13:43:04.199Z,8.60
2023-02-05T13:46:06.549Z,8.60
2023-02-05T13:49:12.270Z,8.60
2023-02-05T13:52:10.063Z,8.50
2023-02-05T13:55:09.149Z,8.70
2023-02-05T13:58:20.534Z,9.00
2023-02-05T14:01:15.503Z,8.60
2023-02-05T14:04:04.223Z,7.40
2023-02-05T14:06:59.165Z,8.30
2023-02-05T14:09:56.437Z,8.40
2023-02-05T14:12:43.915Z,8.40
2023-02-05T14:15:38.753Z,8.80
2023-02-05T14:18:45.016Z,9.20
2023-02-05T14:21:50.998Z,9.30
2023-02-05T14:24:50.410Z,9.30
2023-02-05T14:27:55.470Z,9.60
2023-02-05T14:30:51.143Z,9.50
2023-02-05T14:33:40.651Z,9.60
2023-02-05T14:36:33.220Z,9.80
2023-02-05T14:39:21.706Z,10.00
2023-02-05T14:42:20.098Z,9.00
2023-02-05T14:45:07.584Z,9.20
2023-02-05T14:47:56.301Z,8.40
2023-02-05T14:50:44.508Z,8.40
2023-02-05T14:53:32.537Z,9.30
2023-02-05T14:56:25.909Z,9.20
2023-02-05T14:59:21.697Z,9.10
2023-02-05T15:02:24.502Z,9.20
2023-02-05T15:05:16.670Z,8.80
2023-02-05T15:08:10.075Z,8.50
2023-02-05T15:11:00.497Z,8.40
2023-02-05T15:14:07.022Z,8.30
2023-02-05T15:17:10.372Z,8.30
2023-02-05T15:20:01.906Z,8.20
2023-02-05T15:22:52.476Z,8.00
2023-02-05T15:25:42.172Z,8.10
2023-02-05T15:28:32.875Z,8.20
2023-02-05T15:31:22.916Z,8.20
2023-02-05T15:34:21.772Z,8.30
2023-02-05T15:37:17.117Z,8.30
2023-02-05T15:40:09.283Z,11.50
2023-02-05T15:43:00.587Z,8.20
2023-02-05T15:45:48.160Z,8.20
2023-02-05T15:48:36.408Z,8.20
2023-02-05T15:51:28.068Z,8.70
2023-02-05T15:54:20.082Z,8.20
2023-02-05T15:57:11.965Z,8.00
2023-02-05T16:00:01.902Z,8.00
2023-02-05T16:02:55.038Z,7.60
2023-02-05T16:05:52.563Z,7.60
2023-02-05T16:08:46.385Z,7.40
2023-02-05T16:11:37.234Z,7.40
2023-02-05T16:14:26.338Z,7.30
2023-02-05T16:17:15.743Z,7.10
2023-02-05T16:20:08.273Z,7.10
2023-02-05T16:22:58.393Z,7.00
2023-02-05T16:25:46.699Z,6.90
2023-02-05T16:28:37.745Z,6.90
2023-02-05T16:31:27.095Z,6.90
2023-02-05T16:34:16.611Z,7.00
2023-02-05T16:37:10.103Z,6.90
2023-02-05T16:39:58.313Z,7.00
2023-02-05T16:42:47.848Z,7.00
2023-02-05T16:45:36.829Z,7.00
2023-02-05T16:48:26.317Z,6.80
2023-02-05T16:51:27.966Z,6.80
2023-02-05T16:54:32.909Z,6.70
2023-02-05T17:00:20.585Z,6.70
2023-02-05T17:03:18.531Z,6.70
2023-02-05T17:06:11.269Z,6.60
2023-02-05T17:08:58.902Z,6.50
2023-02-05T17:14:36.119Z,6.50
2023-02-05T17:17:25.103Z,6.40
2023-02-05T17:20:21.493Z,6.30
2023-02-05T17:23:10.700Z,6.20
2023-02-05T17:25:58.352Z,6.30
2023-02-05T17:28:47.015Z,6.30
2023-02-05T17:31:36.633Z,6.30
2023-02-05T17:34:24.529Z,6.20
2023-02-05T17:37:13.687Z,6.10
2023-02-05T17:40:01.297Z,6.00
2023-02-05T17:42:49.648Z,6.20
2023-02-05T17:45:39.490Z,5.90
2023-02-05T17:48:27.758Z,5.50
2023-02-05T17:51:19.296Z,6.00
2023-02-05T17:54:12.255Z,6.10
2023-02-05T17:57:03.044Z,5.90
2023-02-05T17:59:50.934Z,5.90
2023-02-05T18:02:39.465Z,5.90
2023-02-05T18:08:15.033Z,5.90
2023-02-05T18:11:03.842Z,5.80
2023-02-05T18:13:51.335Z,5.70
2023-02-05T18:16:38.954Z,5.80
2023-02-05T18:19:26.830Z,5.90
2023-02-05T18:22:15.238Z,5.70
2023-02-05T18:25:04.725Z,5.60
2023-02-05T18:27:54.483Z,5.60
2023-02-05T18:30:42.901Z,5.50
2023-02-05T18:33:30.888Z,5.40
2023-02-05T18:36:21.764Z,5.50
2023-02-05T18:39:12.144Z,5.50
2023-02-05T18:42:00.506Z,5.50
2023-02-05T18:44:49.469Z,5.40
2023-02-05T18:47:36.938Z,5.40
2023-02-05T18:50:24.687Z,5.30
2023-02-05T18:53:12.060Z,5.30
2023-02-05T18:56:03.560Z,5.70
2023-02-05T18:58:54.860Z,5.10
2023-02-05T19:01:43.748Z,5.70
2023-02-05T19:04:33.154Z,5.20
2023-02-05T19:07:25.908Z,5.10
2023-02-05T19:10:14.469Z,5.20
2023-02-05T19:13:02.239Z,5.20
2023-02-05T19:18:40.110Z,5.20
2023-02-05T19:21:31.574Z,5.10
2023-02-05T19:24:20.125Z,5.00
2023-02-05T19:27:07.980Z,5.00
2023-02-05T19:38:23.738Z,4.90
2023-02-05T19:41:12.634Z,3.80
2023-02-05T19:44:02.368Z,4.80
2023-02-05T19:46:51.134Z,4.70
2023-02-05T19:49:38.837Z,4.80
2023-02-05T19:52:30.257Z,4.80
2023-02-05T19:55:19.544Z,6.40
2023-02-05T19:58:07.978Z,4.60
2023-02-05T20:00:56.058Z,4.40
2023-02-05T20:03:44.904Z,4.60
2023-02-05T20:06:32.787Z,4.60
2023-02-05T20:09:20.731Z,4.40
2023-02-05T20:12:12.994Z,4.40
2023-02-05T20:15:00.606Z,4.80
2023-02-05T20:17:51.188Z,4.50
2023-02-05T20:20:41.186Z,4.40
2023-02-05T20:23:29.868Z,4.50
2023-02-05T20:26:19.160Z,4.40
2023-02-05T20:29:25.731Z,4.40
2023-02-05T20:32:15.098Z,7.20
2023-02-05T20:35:02.856Z,4.30
2023-02-05T20:37:50.152Z,4.20
2023-02-05T20:40:38.065Z,4.20
2023-02-05T20:43:26.454Z,4.90
2023-02-05T20:46:16.394Z,4.20
2023-02-05T20:49:03.732Z,4.20
2023-02-05T20:51:53.077Z,4.10
2023-02-05T20:54:40.928Z,4.20
2023-02-05T20:57:28.965Z,5.40
2023-02-05T21:00:16.607Z,4.20
2023-02-05T21:03:06.271Z,4.20
2023-02-05T21:05:57.922Z,4.20
2023-02-05T21:08:46.266Z,4.10
2023-02-05T21:11:34.401Z,4.10
2023-02-05T21:14:22.837Z,4.10
2023-02-05T21:17:10.854Z,4.10
2023-02-05T21:19:59.725Z,4.10
2023-02-05T21:22:47.183Z,4.00
2023-02-05T21:25:36.429Z,4.10
2023-02-05T21:28:24.157Z,4.10
2023-02-05T21:31:11.852Z,4.00
2023-02-05T21:33:59.675Z,4.00
2023-02-05T21:36:48.966Z,4.00
2023-02-05T21:39:37.520Z,3.90
2023-02-05T21:42:25.373Z,3.90
2023-02-05T21:45:12.989Z,4.10
2023-02-05T21:48:00.440Z,4.00
2023-02-05T21:50:48.454Z,4.00
2023-02-05T21:53:38.666Z,4.00
2023-02-05T21:56:30.964Z,4.00
2023-02-05T21:59:20.237Z,4.00
2023-02-05T22:02:09.780Z,3.90
2023-02-05T22:04:57.914Z,4.00
2023-02-05T22:07:45.257Z,4.00
2023-02-05T22:10:34.948Z,2.50
2023-02-05T22:13:23.440Z,4.10
2023-02-05T22:16:12.774Z,4.10
2023-02-05T22:19:01.630Z,4.10
2023-02-05T22:21:49.294Z,4.20
2023-02-05T22:24:36.795Z,4.20
2023-02-05T22:27:30.418Z,4.20
2023-02-05T22:30:18.162Z,4.10
2023-02-05T22:33:08.524Z,4.30
2023-02-05T22:35:56.201Z,4.10
2023-02-05T22:38:44.441Z,4.00
2023-02-05T22:41:33.579Z,4.00
2023-02-05T22:44:22.639Z,3.80
2023-02-05T22:47:09.856Z,3.80
2023-02-05T22:49:57.324Z,3.90
2023-02-05T22:52:44.874Z,3.80
2023-02-05T22:55:34.873Z,3.70
2023-02-05T22:58:22.762Z,3.80
2023-02-05T23:01:13.088Z,3.80
2023-02-05T23:04:00.885Z,3.70
2023-02-05T23:06:48.483Z,3.80
2023-02-05T23:09:36.120Z,3.70
2023-02-05T23:12:24.506Z,3.70
2023-02-05T23:15:12.994Z,3.60
2023-02-05T23:18:01.802Z,3.50
2023-02-05T23:20:49.582Z,3.40
2023-02-05T23:23:37.784Z,3.30
2023-02-05T23:26:26.579Z,3.20
2023-02-05T23:29:15.657Z,3.20
2023-02-05T23:32:03.069Z,3.10
2023-02-05T23:34:52.620Z,2.90
2023-02-05T23:37:40.369Z,2.80
2023-02-05T23:40:30.780Z,2.70
2023-02-05T23:43:18.055Z,2.60
2023-02-05T23:46:06.965Z,2.60
2023-02-05T23:48:54.331Z,2.50
2023-02-05T23:51:43.524Z,2.40
2023-02-05T23:54:31.120Z,2.40
2023-02-05T23:57:18.552Z,2.40
